Epps, Louisiana
Current Conditions -  °F | °C
As of 2:35 AM on Monday 24 Nov 2014 (Local Time) from KBQP Reporting Station
Clear Clear  
Wind Chill: 57°   Ceiling: Unl
Heat Index: 57°   Visibility: 10mi
Dew Point: 48°   Wind: 8mph
Humidity: 72%   Direction: 260°W
Pressure: 29.69"   Gusts: NA
Location:  32.6°N, 91.48°W
Report Text: KBQP 240835Z AUTO 26007KT 10SM CLR 14/09 A2969 RMK AO2 T01400090
Loading
Personal Weather Stations






























Interactive Weather Map New forecast layout! Learn more

10-Day Weather Forecast

Advertisements
Track Severe Weather on mobile